Terminal Aerodrome Forecast
Issued by NWS Portland, OR

Home | Current Version | Previous Version | Text Only | Print | Product List | Glossary On
Versions: 1 2 3 4 5 6 7 8 9 10 11 12 13 14 15 16 17 18 19 20 21 22 23 24 25 26 27 28
631
FTUS46 KPQR 221450 AAA
TAFPDX
TAF AMD
KPDX 221450Z 2215/2312 33004KT P6SM SCT015 OVC025
     FM221900 29006KT P6SM SCT015 OVC025
     FM222200 30007KT P6SM SCT025 BKN120
     FM230600 30005KT P6SM OVC025=

USA.gov is the U.S. government's official web portal to all federal, state and local government web resources and services.